Current | Forecast
Updated: 8:00 AM JST on October 17, 2017
Observed at Amami, Japan
Temperature 82°F
Humidity 74%
Dew Point 73°F
Wind East at 5 mph
Pressure 29.95 in (Steady)
Conditions Scattered Clouds
Visibility 6.2 miles
UV 1 out of 16
Clouds (FEW) : 1500 ft
Scattered Clouds (SCT) : 15000 ft
Yesterday's Maximum 86°F
Yesterday's Minimum 81°F approx.
Yesterday's Cooling Degree Days 18 approx.
Sunrise6:22 AM JST
Sunset5:49 PM JST
Moon Rise3:41 AM JST
Moon Set4:30 PM JST
Moon PhaseMoon Phase
Waning Crescent
Raw METARMETAR RJKA 162300Z 10004KT 9999 FEW015 SCT150 BKN/// 28/23 Q1014


Monday
. High: 77° F.
Tuesday
. High: 77° F.
Wednesday
. High: 75° F.
Thursday
. High: 77° F.
Friday
. High: 78° F.
Saturday
. High: 77° F.
Sunday
. High: 77° F.
Monday
. High: 78° F.

Units: English | Metric

Find the Weather for any City, State or Zipcode, or Country:

U.S. State List | Severe Weather | Tropical Storms | Ski Conditions
United States | Canada | Central America | South America | Asia | Europe | Australia | Africa | Islands

Weather Underground

© Copyright 2017
The Weather Company, LLC